Bruce, SD (57220)

13:42 CDT le 27 août 2016 (GMT -0500)
SE Lake Drive | | Change Station

Alt. 1657 ft 44.55 °N, 97.05 °W | Updated 10 minutes ago

Overcast
Couvert
72.5 ° F
Paraît 75 ° F
N
6.8
Vent Variable Vent de Sud

Aujourd'hui
Haut(e) -- | Bas -- ° F
--% Risque de précip.
Hier
Haut(e) -- | Bas -- ° F
Precip. -- pouce
Pression 30.02 pouce
Visibilité 10.0 Miles terrestres
Nuages Couvert 1700 ft
indice de chaleur 75 ° F
Point de rosée 62 ° F
Humidité 70%
Précipitations 0.00 pouce
Profondeur de la couche neigeuse Non disponible.
6:45 AM 8:12 PM
Lune descendante, 22% visible
METAR KBKX 271756Z AUTO 13004KT 10SM OVC017 19/16 A2999 RMK AO2 SLP166 6//// T01890156 10189 20150 58010
Pression 30.02 pouce
Visibilité 10.0 Miles terrestres
Nuages Couvert 1700 ft
indice de chaleur 75 ° F
Point de rosée 62 ° F
Humidité 70%
Précipitations 0.00 pouce
Profondeur de la couche neigeuse Non disponible.
6:45 AM 8:12 PM
Lune descendante, 22% visible
METAR KBKX 271756Z AUTO 13004KT 10SM OVC017 19/16 A2999 RMK AO2 SLP166 6//// T01890156 10189 20150 58010

10-Day Weather Forecast

Almanac

Astronomie

Aug. 27, 2016 Lever Coucher
Temps réel
Crépuscule civil
Crépuscule nautique
Crépuscule astronomique
Lune
Durée de lumière visible
Longueur du jour
Tomorrow will be .
, % of the Moon is Illuminated

Extrêmes aujourd'hui

State Highs State Lows

Community

WunderPhotos

Upload Photos

1,935,399 Photos téléchargées !

WunderBlog® & News

Nearby

Qualité de l'air

  Qualité de l'air Indice de la qualité de l'air Polluant
Not available.

Épaisseur de neige

Station Depth Altitude

Activité sismique

Ville Distance Mag. Time & Date
Minimum magnitude displayed is 2.5.

Températures des eaux côtières

Lieu Température

Stations

Stations météo à proximité

Emplacement de la station Température Refroidissement éolien Point de rosée Humidité Vent Precip. Alt. Mise à jour Type
                   

Watches & Warnings

There are currently no watches in effect.